createdAt,value
2018-04-30T00:00:04.557Z,15.73
2018-04-30T00:02:32.043Z,18.90
2018-04-30T00:04:59.523Z,18.23
2018-04-30T00:07:26.999Z,17.03
2018-04-30T00:09:55.258Z,19.17
2018-04-30T00:12:22.719Z,21.50
2018-04-30T00:14:51.712Z,20.10
2018-04-30T00:17:20.694Z,19.60
2018-04-30T00:19:48.180Z,19.27
2018-04-30T00:22:16.413Z,18.37
2018-04-30T00:24:43.884Z,19.23
2018-04-30T00:27:11.367Z,19.73
2018-04-30T00:29:39.609Z,19.50
2018-04-30T00:32:07.313Z,19.40
2018-04-30T00:34:35.547Z,17.73
2018-04-30T00:37:03.021Z,20.07
2018-04-30T00:39:31.996Z,19.47
2018-04-30T00:41:59.480Z,20.40
2018-04-30T00:44:26.955Z,23.83
2018-04-30T00:46:55.210Z,25.17
2018-04-30T00:49:24.186Z,26.57
2018-04-30T00:51:51.655Z,25.37
2018-04-30T00:54:31.641Z,23.87
2018-04-30T00:56:59.884Z,19.47
2018-04-30T00:59:27.368Z,19.30
2018-04-30T01:01:55.620Z,19.80
2018-04-30T01:04:23.863Z,20.10
2018-04-30T01:06:51.357Z,19.90
2018-04-30T01:09:18.860Z,19.10
2018-04-30T01:11:47.099Z,20.90
2018-04-30T01:14:15.349Z,20.37
2018-04-30T01:16:44.318Z,21.60
2018-04-30T01:19:11.799Z,23.30
2018-04-30T01:21:39.272Z,25.27
2018-04-30T01:24:06.754Z,25.80
2018-04-30T01:26:35.073Z,29.00
2018-04-30T01:29:02.580Z,31.80
2018-04-30T01:31:30.811Z,33.80
2018-04-30T01:33:58.295Z,38.53
2018-04-30T01:36:25.768Z,38.63
2018-04-30T01:38:54.016Z,37.10
2018-04-30T01:41:21.707Z,42.40
2018-04-30T01:43:49.948Z,41.07
2018-04-30T01:46:18.933Z,43.27
2018-04-30T01:48:46.413Z,42.80
2018-04-30T01:51:13.893Z,42.97
2018-04-30T01:53:41.531Z,42.07
2018-04-30T01:56:09.031Z,41.40
2018-04-30T01:58:36.504Z,43.17
2018-04-30T02:01:03.997Z,40.93
2018-04-30T02:03:33.039Z,41.50
2018-04-30T02:06:00.476Z,41.60
2018-04-30T02:08:27.991Z,41.60
2018-04-30T02:10:55.731Z,38.90
2018-04-30T02:13:23.594Z,42.63
2018-04-30T02:15:51.067Z,43.10
2018-04-30T02:18:18.540Z,44.13
2018-04-30T02:20:46.080Z,47.70
2018-04-30T02:23:13.545Z,46.53
2018-04-30T02:25:41.032Z,48.37
2018-04-30T02:28:08.514Z,48.40
2018-04-30T02:30:35.984Z,44.03
2018-04-30T02:33:03.494Z,47.40
2018-04-30T02:35:32.479Z,51.20
2018-04-30T02:38:00.721Z,47.23
2018-04-30T02:40:28.183Z,43.43
2018-04-30T02:42:55.656Z,42.73
2018-04-30T02:45:24.588Z,44.87
2018-04-30T02:47:52.839Z,45.30
2018-04-30T02:50:20.308Z,44.97
2018-04-30T02:52:47.783Z,37.93
2018-04-30T02:55:16.033Z,36.17
2018-04-30T02:57:43.534Z,31.43
2018-04-30T03:00:10.997Z,30.47
2018-04-30T03:02:38.492Z,31.33
2018-04-30T03:05:05.960Z,30.60
2018-04-30T03:07:34.216Z,31.70
2018-04-30T03:10:01.697Z,29.73
2018-04-30T03:12:29.176Z,31.53
2018-04-30T03:14:57.421Z,30.13
2018-04-30T03:17:25.050Z,28.57
2018-04-30T03:19:52.561Z,29.03
2018-04-30T03:22:20.806Z,25.93
2018-04-30T03:24:48.287Z,24.00
2018-04-30T03:27:15.796Z,24.70
2018-04-30T03:29:44.003Z,20.67
2018-04-30T03:32:11.472Z,18.30
2018-04-30T03:34:39.929Z,17.93
2018-04-30T03:37:07.392Z,16.60
2018-04-30T03:39:34.935Z,15.73
2018-04-30T03:42:02.424Z,15.17
2018-04-30T03:44:30.662Z,15.27
2018-04-30T03:46:58.131Z,15.90
2018-04-30T03:49:25.886Z,16.60
2018-04-30T03:51:53.360Z,14.53
2018-04-30T03:54:20.840Z,15.93
2018-04-30T03:56:49.118Z,15.77
2018-04-30T03:59:17.336Z,16.87
2018-04-30T04:01:56.780Z,15.30
2018-04-30T04:04:36.235Z,17.27
2018-04-30T04:07:03.723Z,15.97
2018-04-30T04:09:31.188Z,16.40
2018-04-30T04:11:59.447Z,17.03
2018-04-30T04:14:27.116Z,17.50
2018-04-30T04:16:55.380Z,16.47
2018-04-30T04:19:22.881Z,16.73
2018-04-30T04:21:50.387Z,17.27
2018-04-30T04:24:17.851Z,18.17
2018-04-30T04:26:45.327Z,18.00
2018-04-30T04:29:13.556Z,18.30
2018-04-30T04:31:41.037Z,19.60
2018-04-30T04:34:08.610Z,19.77
2018-04-30T04:36:36.844Z,20.77
2018-04-30T04:39:04.324Z,19.27
2018-04-30T04:41:31.810Z,19.00
2018-04-30T04:44:00.055Z,20.57
2018-04-30T04:46:27.855Z,20.37
2018-04-30T04:48:56.102Z,19.27
2018-04-30T04:51:23.577Z,22.27
2018-04-30T04:53:51.103Z,19.87
2018-04-30T04:56:18.569Z,18.40
2018-04-30T04:58:46.051Z,19.27
2018-04-30T05:01:13.516Z,17.87
2018-04-30T05:03:41.763Z,13.90
2018-04-30T05:06:09.279Z,12.47
2018-04-30T05:08:36.760Z,10.93
2018-04-30T05:11:04.238Z,9.27
2018-04-30T05:13:31.731Z,9.30
2018-04-30T05:15:59.954Z,7.50
2018-04-30T05:18:27.446Z,7.23
2018-04-30T05:20:55.756Z,5.87
2018-04-30T05:23:23.154Z,5.30
2018-04-30T05:25:50.653Z,4.50
2018-04-30T05:28:18.901Z,3.53
2018-04-30T05:30:46.368Z,3.83
2018-04-30T05:33:14.608Z,4.50
2018-04-30T05:35:42.100Z,3.47
2018-04-30T05:38:10.328Z,2.80
2018-04-30T05:40:37.800Z,2.73
2018-04-30T05:43:05.252Z,3.03
2018-04-30T05:45:32.728Z,2.67
2018-04-30T05:48:00.245Z,2.73
2018-04-30T05:50:27.668Z,2.17
2018-04-30T05:52:55.903Z,2.50
2018-04-30T05:55:23.408Z,2.20
2018-04-30T05:57:51.664Z,2.30
2018-04-30T06:00:19.180Z,2.77
2018-04-30T06:02:46.636Z,1.90
2018-04-30T06:05:14.216Z,2.33
2018-04-30T06:07:41.679Z,1.97
2018-04-30T06:10:09.161Z,1.97
2018-04-30T06:12:36.671Z,2.07
2018-04-30T06:15:04.136Z,1.70
2018-04-30T06:17:31.953Z,1.73
2018-04-30T06:20:00.168Z,2.10
2018-04-30T06:22:27.635Z,1.70
2018-04-30T06:24:55.097Z,1.40
2018-04-30T06:27:22.652Z,1.63
2018-04-30T06:29:50.108Z,1.17
2018-04-30T06:32:17.595Z,1.50
2018-04-30T06:34:45.842Z,1.27
2018-04-30T06:37:13.323Z,1.40
2018-04-30T06:39:41.548Z,2.10
2018-04-30T06:42:09.080Z,1.80
2018-04-30T06:44:36.564Z,1.63
2018-04-30T06:47:04.075Z,1.73
2018-04-30T06:49:31.737Z,1.33
2018-04-30T06:51:59.973Z,1.73
2018-04-30T06:54:27.463Z,1.50
2018-04-30T06:56:54.940Z,1.80
2018-04-30T06:59:23.200Z,1.87
2018-04-30T07:01:50.656Z,1.87
2018-04-30T07:04:18.123Z,1.50
2018-04-30T07:06:46.340Z,1.80
2018-04-30T07:09:13.975Z,2.60
2018-04-30T07:11:41.390Z,1.70
2018-04-30T07:14:08.895Z,2.00
2018-04-30T07:16:36.356Z,1.70
2018-04-30T07:19:03.837Z,2.30
2018-04-30T07:21:31.325Z,1.90
2018-04-30T07:23:59.567Z,2.03
2018-04-30T07:26:27.039Z,2.47
2018-04-30T07:28:54.499Z,1.80
2018-04-30T07:31:21.960Z,1.80
2018-04-30T07:33:49.460Z,1.90
2018-04-30T07:36:16.937Z,2.13
2018-04-30T07:38:44.408Z,2.70
2018-04-30T07:41:11.880Z,2.10
2018-04-30T07:43:39.339Z,2.00
2018-04-30T07:46:06.823Z,1.57
2018-04-30T07:48:36.155Z,1.90
2018-04-30T07:51:03.655Z,2.00
2018-04-30T07:53:31.143Z,1.87
2018-04-30T07:55:58.622Z,1.80
2018-04-30T07:58:26.093Z,2.10
2018-04-30T08:00:53.603Z,1.70
2018-04-30T08:03:21.069Z,1.80
2018-04-30T08:05:49.327Z,2.10
2018-04-30T08:08:16.803Z,1.60
2018-04-30T08:10:45.024Z,1.70
2018-04-30T08:13:12.503Z,1.50
2018-04-30T08:15:39.981Z,1.40
2018-04-30T08:18:08.243Z,1.67
2018-04-30T08:20:35.772Z,1.63
2018-04-30T08:23:03.284Z,1.90
2018-04-30T08:25:32.247Z,1.50
2018-04-30T08:27:59.761Z,1.53
2018-04-30T08:30:27.236Z,1.80
2018-04-30T08:32:54.747Z,2.00
2018-04-30T08:35:22.255Z,1.30
2018-04-30T08:37:49.779Z,1.60
2018-04-30T08:40:17.995Z,1.40
2018-04-30T08:42:45.481Z,1.40
2018-04-30T08:45:12.942Z,1.27
2018-04-30T08:47:40.419Z,1.23
2018-04-30T08:50:08.750Z,1.23
2018-04-30T08:52:36.241Z,1.07
2018-04-30T08:55:04.474Z,1.67
2018-04-30T08:57:31.957Z,1.30
2018-04-30T08:59:59.444Z,1.53
2018-04-30T09:02:27.699Z,1.00
2018-04-30T09:04:55.189Z,1.20
2018-04-30T09:07:23.432Z,1.20
2018-04-30T09:09:50.898Z,1.33
2018-04-30T09:12:18.376Z,1.20
2018-04-30T09:14:46.606Z,1.20
2018-04-30T09:17:14.082Z,1.10
2018-04-30T09:19:41.550Z,1.13
2018-04-30T09:22:09.797Z,1.30
2018-04-30T09:24:37.300Z,1.20
2018-04-30T09:27:05.539Z,1.10
2018-04-30T09:29:33.025Z,1.70
2018-04-30T09:32:01.256Z,1.40
2018-04-30T09:34:28.733Z,1.40
2018-04-30T09:36:56.193Z,1.63
2018-04-30T09:39:23.674Z,1.30
2018-04-30T09:41:51.924Z,1.23
2018-04-30T09:44:19.372Z,1.40
2018-04-30T09:46:46.858Z,1.43
2018-04-30T09:49:14.325Z,1.30
2018-04-30T09:51:41.820Z,1.20
2018-04-30T09:54:09.298Z,1.20
2018-04-30T09:56:36.775Z,1.13
2018-04-30T09:59:04.443Z,1.20
2018-04-30T10:01:32.690Z,1.30
2018-04-30T10:04:00.147Z,1.23
2018-04-30T10:06:27.627Z,1.10
2018-04-30T10:08:55.174Z,1.17
2018-04-30T10:11:23.943Z,1.50
2018-04-30T10:13:51.887Z,1.30
2018-04-30T10:16:19.469Z,1.57
2018-04-30T10:18:46.951Z,1.40
2018-04-30T10:21:14.418Z,1.40
2018-04-30T10:23:43.068Z,1.30
2018-04-30T10:26:11.246Z,1.30
2018-04-30T10:28:38.811Z,1.20
2018-04-30T10:31:06.204Z,1.20
2018-04-30T10:33:34.481Z,1.20
2018-04-30T10:36:02.700Z,1.47
2018-04-30T10:38:30.166Z,1.50
2018-04-30T10:40:57.661Z,1.07
2018-04-30T10:43:25.938Z,1.30
2018-04-30T10:45:54.250Z,1.40
2018-04-30T10:48:21.660Z,1.50
2018-04-30T10:50:50.677Z,1.40
2018-04-30T10:53:18.936Z,1.23
2018-04-30T10:55:47.170Z,1.60
2018-04-30T10:58:14.649Z,1.40
2018-04-30T11:00:42.380Z,1.30
2018-04-30T11:03:09.877Z,1.30
2018-04-30T11:05:38.113Z,1.23
2018-04-30T11:08:05.598Z,1.50
2018-04-30T11:10:33.108Z,1.43
2018-04-30T11:13:00.665Z,1.20
2018-04-30T11:15:28.153Z,1.60
2018-04-30T11:17:55.603Z,1.23
2018-04-30T11:20:23.079Z,1.50
2018-04-30T11:22:50.544Z,1.10
2018-04-30T11:25:18.016Z,1.30
2018-04-30T11:27:46.259Z,1.33
2018-04-30T11:30:13.731Z,1.30
2018-04-30T11:32:41.190Z,1.10
2018-04-30T11:35:08.691Z,1.53
2018-04-30T11:37:36.915Z,1.20
2018-04-30T11:40:04.412Z,1.10
2018-04-30T11:42:32.648Z,1.20
2018-04-30T11:45:01.655Z,1.10
2018-04-30T11:47:30.631Z,1.47
2018-04-30T11:49:58.119Z,1.67
2018-04-30T11:52:26.369Z,1.30
2018-04-30T11:54:53.873Z,1.07
2018-04-30T11:57:21.534Z,1.20
2018-04-30T11:59:49.782Z,1.10
2018-04-30T12:02:17.300Z,1.27
2018-04-30T12:04:45.213Z,1.00
2018-04-30T12:07:13.449Z,1.20
2018-04-30T12:09:40.930Z,1.60
2018-04-30T12:12:09.199Z,1.07
2018-04-30T12:14:36.687Z,1.00
2018-04-30T12:17:04.960Z,1.40
2018-04-30T12:19:32.417Z,1.50
2018-04-30T12:22:00.892Z,1.23
2018-04-30T12:24:28.319Z,1.20
2018-04-30T12:26:55.831Z,1.53
2018-04-30T12:29:23.404Z,1.40
2018-04-30T12:31:51.023Z,1.23
2018-04-30T12:34:18.495Z,1.37
2018-04-30T12:36:46.955Z,1.17
2018-04-30T12:39:14.418Z,1.47
2018-04-30T12:41:41.890Z,1.03
2018-04-30T12:44:09.400Z,1.00
2018-04-30T12:46:36.899Z,0.90
2018-04-30T12:49:04.383Z,1.00
2018-04-30T12:51:31.855Z,1.20
2018-04-30T12:53:59.338Z,1.00
2018-04-30T12:56:26.839Z,1.33
2018-04-30T12:58:55.097Z,1.07
2018-04-30T13:01:22.552Z,1.10
2018-04-30T13:03:50.037Z,0.90
2018-04-30T13:06:17.515Z,0.90
2018-04-30T13:08:45.039Z,0.90
2018-04-30T13:11:13.261Z,0.80
2018-04-30T13:13:40.777Z,0.80
2018-04-30T13:16:09.038Z,0.93
2018-04-30T13:18:37.280Z,0.87
2018-04-30T13:21:04.735Z,0.90
2018-04-30T13:23:32.248Z,0.80
2018-04-30T13:26:00.486Z,0.80
2018-04-30T13:28:28.002Z,0.80
2018-04-30T13:30:56.224Z,1.00
2018-04-30T13:33:23.695Z,0.90
2018-04-30T13:36:00.792Z,1.00
2018-04-30T13:38:29.023Z,0.93
2018-04-30T13:40:56.498Z,1.00
2018-04-30T13:43:24.026Z,0.90
2018-04-30T13:45:51.488Z,0.80
2018-04-30T13:48:18.988Z,1.00
2018-04-30T13:50:47.470Z,1.10
2018-04-30T13:53:15.688Z,1.00
2018-04-30T13:55:43.159Z,0.97
2018-04-30T13:58:10.660Z,1.00
2018-04-30T14:00:38.899Z,1.23
2018-04-30T14:03:06.380Z,0.90
2018-04-30T14:05:34.616Z,0.80
2018-04-30T14:08:02.092Z,0.93
2018-04-30T14:10:30.384Z,0.87
2018-04-30T14:12:57.856Z,0.80
2018-04-30T14:15:26.117Z,0.93
2018-04-30T14:17:55.108Z,0.80
2018-04-30T14:20:22.668Z,0.70
2018-04-30T14:22:51.183Z,0.80
2018-04-30T14:25:18.643Z,0.90
2018-04-30T14:27:46.112Z,1.10
2018-04-30T14:30:13.591Z,1.00
2018-04-30T14:32:41.080Z,1.10
2018-04-30T14:35:09.320Z,0.90
2018-04-30T14:37:36.977Z,1.03
2018-04-30T14:40:04.545Z,1.00
2018-04-30T14:42:32.032Z,0.70
2018-04-30T14:44:59.494Z,0.80
2018-04-30T14:47:27.712Z,1.10
2018-04-30T14:49:55.189Z,1.00
2018-04-30T14:52:22.812Z,0.90
2018-04-30T14:54:50.676Z,1.00
2018-04-30T14:57:18.932Z,0.93
2018-04-30T14:59:47.173Z,0.90
2018-04-30T15:02:14.655Z,1.00
2018-04-30T15:04:43.665Z,0.80
2018-04-30T15:07:11.901Z,0.90
2018-04-30T15:09:39.376Z,1.00
2018-04-30T15:12:06.845Z,1.00
2018-04-30T15:14:34.304Z,0.93
2018-04-30T15:17:02.596Z,0.90
2018-04-30T15:19:30.092Z,0.80
2018-04-30T15:21:57.548Z,1.13
2018-04-30T15:24:25.068Z,0.90
2018-04-30T15:26:54.162Z,1.03
2018-04-30T15:29:21.745Z,1.17
2018-04-30T15:31:49.270Z,0.90
2018-04-30T15:34:17.496Z,0.90
2018-04-30T15:36:45.117Z,0.90
2018-04-30T15:39:12.609Z,1.50
2018-04-30T15:41:40.183Z,1.10
2018-04-30T15:44:07.692Z,1.00
2018-04-30T15:46:35.989Z,0.80
2018-04-30T15:49:03.447Z,0.90
2018-04-30T15:51:31.003Z,0.80
2018-04-30T15:53:58.464Z,0.90
2018-04-30T15:56:26.031Z,0.80
2018-04-30T15:58:54.144Z,0.90
2018-04-30T16:01:22.534Z,0.80
2018-04-30T16:03:50.008Z,0.80
2018-04-30T16:06:17.514Z,0.90
2018-04-30T16:08:44.975Z,0.80
2018-04-30T16:11:12.558Z,0.90
2018-04-30T16:13:41.599Z,0.87
2018-04-30T16:16:09.236Z,0.80
2018-04-30T16:18:37.701Z,0.80
2018-04-30T16:21:06.187Z,0.90
2018-04-30T16:23:36.334Z,0.80
2018-04-30T16:26:05.335Z,1.00
2018-04-30T16:28:34.139Z,0.70
2018-04-30T16:31:01.907Z,0.90
2018-04-30T16:33:33.689Z,1.00
2018-04-30T16:36:01.948Z,1.10
2018-04-30T16:38:29.625Z,0.90
2018-04-30T16:40:57.324Z,1.00
2018-04-30T16:43:25.631Z,0.90
2018-04-30T16:45:53.269Z,0.90
2018-04-30T16:48:20.748Z,0.93
2018-04-30T16:50:48.323Z,1.27
2018-04-30T16:53:15.832Z,1.07
2018-04-30T16:55:44.099Z,0.90
2018-04-30T16:58:12.489Z,0.90
2018-04-30T17:00:40.741Z,0.80
2018-04-30T17:03:08.395Z,0.73
2018-04-30T17:05:35.883Z,0.80
2018-04-30T17:08:03.447Z,0.90
2018-04-30T17:10:31.871Z,0.90
2018-04-30T17:12:59.380Z,0.93
2018-04-30T17:15:27.161Z,0.80
2018-04-30T17:17:54.645Z,0.80
2018-04-30T17:20:22.175Z,0.80
2018-04-30T17:22:53.881Z,1.10
2018-04-30T17:25:22.993Z,0.90
2018-04-30T17:27:51.245Z,0.80
2018-04-30T17:30:18.821Z,0.70
2018-04-30T17:32:46.255Z,0.87
2018-04-30T17:35:13.741Z,0.70
2018-04-30T17:37:42.127Z,0.80
2018-04-30T17:40:10.367Z,0.73
2018-04-30T17:42:37.872Z,1.10
2018-04-30T17:45:06.121Z,0.80
2018-04-30T17:47:33.658Z,0.90
2018-04-30T17:50:01.432Z,0.83
2018-04-30T17:52:28.919Z,0.90
2018-04-30T17:55:02.024Z,1.40
2018-04-30T17:57:30.179Z,0.80
2018-04-30T17:59:57.991Z,1.17
2018-04-30T18:02:26.827Z,0.83
2018-04-30T18:04:55.622Z,1.23
2018-04-30T18:07:23.284Z,0.70
2018-04-30T18:09:50.921Z,1.43
2018-04-30T18:12:18.454Z,0.90
2018-04-30T18:14:45.960Z,0.80
2018-04-30T18:17:14.249Z,0.83
2018-04-30T18:19:41.788Z,1.00
2018-04-30T18:22:09.374Z,0.80
2018-04-30T18:24:36.870Z,1.00
2018-04-30T18:27:04.416Z,0.97
2018-04-30T18:29:31.957Z,0.90
2018-04-30T18:31:59.509Z,0.80
2018-04-30T18:34:27.364Z,0.80
2018-04-30T18:36:55.065Z,0.77
2018-04-30T18:39:27.910Z,0.87
2018-04-30T18:41:56.355Z,0.83
2018-04-30T18:44:24.859Z,0.70
2018-04-30T18:46:52.304Z,0.90
2018-04-30T18:49:20.570Z,0.70
2018-04-30T18:51:48.144Z,0.80
2018-04-30T18:54:16.410Z,0.70
2018-04-30T18:56:44.239Z,0.73
2018-04-30T18:59:11.697Z,0.70
2018-04-30T19:01:39.430Z,0.80
2018-04-30T19:04:08.094Z,0.77
2018-04-30T19:06:35.795Z,0.83
2018-04-30T19:09:03.276Z,0.80
2018-04-30T19:11:30.794Z,0.77
2018-04-30T19:13:58.388Z,0.80
2018-04-30T19:16:26.047Z,0.70
2018-04-30T19:18:53.644Z,0.80
2018-04-30T19:21:21.388Z,0.87
2018-04-30T19:23:48.954Z,0.70
2018-04-30T19:26:16.425Z,0.80
2018-04-30T19:28:43.968Z,0.80
2018-04-30T19:31:11.529Z,0.80
2018-04-30T19:33:39.169Z,0.80
2018-04-30T19:36:06.685Z,0.80
2018-04-30T19:38:34.947Z,0.80
2018-04-30T19:41:03.412Z,0.77
2018-04-30T19:43:30.886Z,0.90
2018-04-30T19:45:59.252Z,0.87
2018-04-30T19:48:26.784Z,0.80
2018-04-30T19:50:54.265Z,0.70
2018-04-30T19:53:22.866Z,0.80
2018-04-30T19:55:51.165Z,0.80
2018-04-30T19:58:18.650Z,0.80
2018-04-30T20:00:46.123Z,0.70
2018-04-30T20:03:13.613Z,0.80
2018-04-30T20:05:41.878Z,0.87
2018-04-30T20:08:10.396Z,1.00
2018-04-30T20:10:37.924Z,0.90
2018-04-30T20:13:06.172Z,0.77
2018-04-30T20:15:33.672Z,0.70
2018-04-30T20:18:01.928Z,0.80
2018-04-30T20:20:30.279Z,0.90
2018-04-30T20:22:57.760Z,0.87
2018-04-30T20:25:25.314Z,0.80
2018-04-30T20:27:52.806Z,0.70
2018-04-30T20:30:21.043Z,1.13
2018-04-30T20:32:48.567Z,0.90
2018-04-30T20:35:16.068Z,0.97
2018-04-30T20:37:44.324Z,0.87
2018-04-30T20:40:11.805Z,0.80
2018-04-30T20:42:39.313Z,0.87
2018-04-30T20:45:06.801Z,1.00
2018-04-30T20:47:34.271Z,0.80
2018-04-30T20:50:02.563Z,1.27
2018-04-30T20:52:30.058Z,0.90
2018-04-30T20:54:57.535Z,0.80
2018-04-30T20:57:25.021Z,0.90
2018-04-30T20:59:52.501Z,0.90
2018-04-30T21:02:19.998Z,1.00
2018-04-30T21:04:47.507Z,1.10
2018-04-30T21:07:16.100Z,0.83
2018-04-30T21:09:44.320Z,1.00
2018-04-30T21:12:11.847Z,1.10
2018-04-30T21:14:39.376Z,1.10
2018-04-30T21:17:06.917Z,0.90
2018-04-30T21:19:34.425Z,1.20
2018-04-30T21:22:01.951Z,1.00
2018-04-30T21:24:29.448Z,1.00
2018-04-30T21:26:57.681Z,0.90
2018-04-30T21:29:25.950Z,1.07
2018-04-30T21:31:54.952Z,0.90
2018-04-30T21:34:23.218Z,1.00
2018-04-30T21:36:50.687Z,0.90
2018-04-30T21:39:19.115Z,1.07
2018-04-30T21:41:46.588Z,1.00
2018-04-30T21:44:14.108Z,1.13
2018-04-30T21:46:41.574Z,1.77
2018-04-30T21:49:09.055Z,0.90
2018-04-30T21:51:36.550Z,1.00
2018-04-30T21:54:04.007Z,1.40
2018-04-30T21:56:32.287Z,1.10
2018-04-30T21:59:00.522Z,1.00
2018-04-30T22:01:28.031Z,0.90
2018-04-30T22:03:56.272Z,0.80
2018-04-30T22:06:23.773Z,0.90
2018-04-30T22:08:51.281Z,0.80
2018-04-30T22:11:18.969Z,0.90
2018-04-30T22:13:46.459Z,0.80
2018-04-30T22:16:13.941Z,0.90
2018-04-30T22:18:41.404Z,0.80
2018-04-30T22:21:08.905Z,0.80
2018-04-30T22:23:37.123Z,0.80
2018-04-30T22:26:04.628Z,0.90
2018-04-30T22:28:32.852Z,1.00
2018-04-30T22:31:00.335Z,0.77
2018-04-30T22:33:27.788Z,0.97
2018-04-30T22:35:55.280Z,0.70
2018-04-30T22:38:23.507Z,0.90
2018-04-30T22:40:51.013Z,1.10
2018-04-30T22:43:19.242Z,0.77
2018-04-30T22:45:46.708Z,0.73
2018-04-30T22:48:14.184Z,0.70
2018-04-30T22:50:41.655Z,0.80
2018-04-30T22:53:09.146Z,0.80
2018-04-30T22:55:36.611Z,0.70
2018-04-30T22:58:04.093Z,0.90
2018-04-30T23:00:31.589Z,0.90
2018-04-30T23:02:59.834Z,0.90
2018-04-30T23:05:27.295Z,0.90
2018-04-30T23:07:54.759Z,0.80
2018-04-30T23:10:22.312Z,0.87
2018-04-30T23:12:49.976Z,1.10
2018-04-30T23:15:17.450Z,0.90
2018-04-30T23:17:45.737Z,0.90
2018-04-30T23:20:13.988Z,0.80
2018-04-30T23:22:41.463Z,0.80
2018-04-30T23:25:10.424Z,0.80
2018-04-30T23:27:37.879Z,0.90
2018-04-30T23:30:05.339Z,0.70
2018-04-30T23:32:33.583Z,0.80
2018-04-30T23:35:01.095Z,0.80
2018-04-30T23:37:28.546Z,0.70
2018-04-30T23:39:56.028Z,0.80
2018-04-30T23:42:24.251Z,1.00
2018-04-30T23:44:51.740Z,0.80
2018-04-30T23:47:19.207Z,1.30
2018-04-30T23:49:47.470Z,0.70
2018-04-30T23:52:14.931Z,0.90
2018-04-30T23:54:42.400Z,0.73
2018-04-30T23:57:10.651Z,0.80
2018-04-30T23:59:38.107Z,0.80
